Time,TemperatureF,DewpointF,PressureIn,WindDirection,WindDirectionDegrees,WindSpeedMPH,WindSpeedGustMPH,Humidity,HourlyPrecipIn,Conditions,Clouds,dailyrainin,SoftwareType,DateUTC
2013-04-24 00:00:00,46.9,39.7,29.96,SSE,152,0.0,3.0,76,0.00,,CLR,0.00,VWS V14.01,2013-04-24 04:00:00,
2013-04-24 00:01:00,47.0,39.8,29.97,SE,132,1.0,3.0,76,0.00,,CLR,0.00,VWS V14.01,2013-04-24 04:01:00,
2013-04-24 00:02:00,47.0,39.8,29.97,SE,132,0.0,3.0,76,0.00,,CLR,0.00,VWS V14.01,2013-04-24 04:02:00,
2013-04-24 00:07:00,46.9,39.7,29.96,SSE,153,0.0,3.0,76,0.00,,CLR,0.00,VWS V14.01,2013-04-24 04:07:00,
2013-04-24 00:10:00,46.8,39.7,29.96,SSE,152,0.0,2.0,76,0.00,,CLR,0.00,VWS V14.01,2013-04-24 04:10:00,
2013-04-24 00:12:00,46.9,39.7,29.96,SSE,150,1.0,1.0,76,0.00,,CLR,0.00,VWS V14.01,2013-04-24 04:12:00,
2013-04-24 00:17:00,46.8,39.7,29.96,SSE,152,0.0,2.0,76,0.00,,CLR,0.00,VWS V14.01,2013-04-24 04:17:00,
2013-04-24 00:20:00,46.8,39.7,29.95,SSE,150,0.0,2.0,76,0.00,,CLR,0.00,VWS V14.01,2013-04-24 04:20:00,
2013-04-24 00:22:00,46.7,39.5,29.95,SSE,152,1.0,1.0,76,0.00,,CLR,0.00,VWS V14.01,2013-04-24 04:22:00,
2013-04-24 00:27:00,46.7,39.5,29.95,SSE,150,0.0,2.0,76,0.00,,CLR,0.00,VWS V14.01,2013-04-24 04:27:00,
2013-04-24 00:30:00,46.7,39.9,29.95,ESE,110,0.0,3.0,77,0.00,,CLR,0.00,VWS V14.01,2013-04-24 04:30:00,
2013-04-24 00:32:00,46.7,39.5,29.95,SSE,150,0.0,1.0,76,0.00,,CLR,0.00,VWS V14.01,2013-04-24 04:32:00,
2013-04-24 00:37:00,46.7,39.9,29.95,ESE,120,0.0,3.0,77,0.00,,CLR,0.00,VWS V14.01,2013-04-24 04:37:00,
2013-04-24 00:40:00,46.7,39.5,29.95,ESE,118,0.0,2.0,76,0.00,,CLR,0.00,VWS V14.01,2013-04-24 04:40:00,
2013-04-24 00:42:00,46.7,39.5,29.95,ESE,110,1.0,2.0,76,0.00,,CLR,0.00,VWS V14.01,2013-04-24 04:42:00,
2013-04-24 00:47:00,46.7,39.5,29.95,ESE,118,0.0,2.0,76,0.00,,CLR,0.00,VWS V14.01,2013-04-24 04:47:00,
2013-04-24 00:50:00,46.4,39.6,29.94,ESE,118,0.0,2.0,77,0.00,,CLR,0.00,VWS V14.01,2013-04-24 04:50:00,
2013-04-24 00:52:00,46.5,39.7,29.94,ESE,118,0.0,2.0,77,0.00,,CLR,0.00,VWS V14.01,2013-04-24 04:52:00,
2013-04-24 00:57:00,46.4,39.6,29.94,ESE,118,0.0,2.0,77,0.00,,CLR,0.00,VWS V14.01,2013-04-24 04:57:00,
2013-04-24 01:00:00,46.2,39.4,29.94,ESE,118,0.0,1.0,77,0.00,,CLR,0.00,VWS V14.01,2013-04-24 05:00:00,
2013-04-24 01:02:00,46.3,39.5,29.94,ESE,118,0.0,1.0,77,0.00,,CLR,0.00,VWS V14.01,2013-04-24 05:02:00,
2013-04-24 01:07:00,46.2,39.4,29.94,ESE,118,0.0,1.0,77,0.00,,CLR,0.00,VWS V14.01,2013-04-24 05:07:00,
2013-04-24 01:10:00,46.0,39.5,29.94,ESE,118,0.0,0.0,78,0.00,,CLR,0.00,VWS V14.01,2013-04-24 05:10:00,
2013-04-24 01:12:00,46.1,39.3,29.94,ESE,118,0.0,0.0,77,0.00,,CLR,0.00,VWS V14.01,2013-04-24 05:12:00,
2013-04-24 01:17:00,46.0,39.5,29.94,ESE,118,0.0,0.0,78,0.00,,CLR,0.00,VWS V14.01,2013-04-24 05:17:00,
2013-04-24 01:20:00,45.8,39.3,29.93,ESE,118,0.0,0.0,78,0.00,,CLR,0.00,VWS V14.01,2013-04-24 05:20:00,
2013-04-24 01:22:00,45.9,39.4,29.93,ESE,118,0.0,0.0,78,0.00,,CLR,0.00,VWS V14.01,2013-04-24 05:22:00,
2013-04-24 01:27:00,45.9,39.4,29.93,ESE,118,0.0,0.0,78,0.00,,CLR,0.00,VWS V14.01,2013-04-24 05:27:00,
2013-04-24 01:30:00,45.6,39.2,29.93,ESE,118,0.0,0.0,78,0.00,,CLR,0.00,VWS V14.01,2013-04-24 05:30:00,
2013-04-24 01:32:00,45.8,39.3,29.93,ESE,118,0.0,0.0,78,0.00,,CLR,0.00,VWS V14.01,2013-04-24 05:32:00,
2013-04-24 01:37:00,45.6,39.2,29.93,ESE,118,0.0,0.0,78,0.00,,CLR,0.00,VWS V14.01,2013-04-24 05:37:00,
2013-04-24 01:40:00,45.4,39.3,29.93,SSE,161,0.0,1.0,79,0.00,,CLR,0.00,VWS V14.01,2013-04-24 05:40:00,
2013-04-24 01:42:00,45.5,39.4,29.93,ESE,118,0.0,0.0,79,0.00,,CLR,0.00,VWS V14.01,2013-04-24 05:42:00,
2013-04-24 01:47:00,45.4,39.3,29.93,SSE,161,0.0,1.0,79,0.00,,CLR,0.00,VWS V14.01,2013-04-24 05:47:00,
2013-04-24 01:50:00,45.4,39.3,29.91,ESE,123,0.0,2.0,79,0.00,,CLR,0.00,VWS V14.01,2013-04-24 05:50:00,
2013-04-24 01:52:00,45.5,39.4,29.91,ESE,122,0.0,2.0,79,0.00,,CLR,0.00,VWS V14.01,2013-04-24 05:52:00,
2013-04-24 01:57:00,45.4,39.3,29.91,ESE,123,0.0,2.0,79,0.00,,CLR,0.00,VWS V14.01,2013-04-24 05:57:00,
2013-04-24 02:00:00,45.0,39.2,29.91,ESE,123,0.0,0.0,80,0.00,,CLR,0.00,VWS V14.01,2013-04-24 06:00:00,
2013-04-24 02:02:00,45.2,39.1,29.91,ESE,123,0.0,0.0,79,0.00,,CLR,0.00,VWS V14.01,2013-04-24 06:02:00,
2013-04-24 02:07:00,45.0,39.2,29.91,ESE,123,0.0,0.0,80,0.00,,CLR,0.00,VWS V14.01,2013-04-24 06:07:00,
2013-04-24 02:10:00,44.9,39.1,29.91,ESE,123,0.0,0.0,80,0.00,,CLR,0.00,VWS V14.01,2013-04-24 06:10:00,
2013-04-24 02:12:00,45.0,39.2,29.91,ESE,123,0.0,0.0,80,0.00,,CLR,0.00,VWS V14.01,2013-04-24 06:12:00,
2013-04-24 02:17:00,44.9,39.1,29.91,ESE,123,0.0,0.0,80,0.00,,CLR,0.00,VWS V14.01,2013-04-24 06:17:00,
2013-04-24 02:20:00,44.8,39.3,29.90,ESE,122,0.0,1.0,81,0.00,,CLR,0.00,VWS V14.01,2013-04-24 06:20:00,
2013-04-24 02:22:00,44.9,39.4,29.90,ESE,122,0.0,1.0,81,0.00,,CLR,0.00,VWS V14.01,2013-04-24 06:22:00,
2013-04-24 02:27:00,44.8,39.3,29.90,ESE,122,0.0,1.0,81,0.00,,CLR,0.00,VWS V14.01,2013-04-24 06:27:00,
2013-04-24 02:30:00,44.7,39.5,29.90,ESE,123,0.0,1.0,82,0.00,,CLR,0.00,VWS V14.01,2013-04-24 06:30:00,
2013-04-24 02:32:00,44.7,39.2,29.90,ESE,122,0.0,1.0,81,0.00,,CLR,0.00,VWS V14.01,2013-04-24 06:32:00,
2013-04-24 02:37:00,44.7,39.5,29.90,ESE,123,0.0,1.0,82,0.00,,CLR,0.00,VWS V14.01,2013-04-24 06:37:00,
2013-04-24 02:40:00,44.5,39.4,29.90,SSE,163,0.0,1.0,82,0.00,,CLR,0.00,VWS V14.01,2013-04-24 06:40:00,
2013-04-24 02:42:00,44.8,39.7,29.90,SSE,163,0.0,1.0,82,0.00,,CLR,0.00,VWS V14.01,2013-04-24 06:42:00,
2013-04-24 02:47:00,44.5,39.4,29.90,SSE,163,0.0,1.0,82,0.00,,CLR,0.00,VWS V14.01,2013-04-24 06:47:00,
2013-04-24 02:50:00,43.7,38.6,29.90,SSE,163,0.0,1.0,82,0.00,,CLR,0.00,VWS V14.01,2013-04-24 06:50:00,
2013-04-24 02:52:00,44.2,39.1,29.90,SSE,163,0.0,1.0,82,0.00,,CLR,0.00,VWS V14.01,2013-04-24 06:52:00,
2013-04-24 02:57:00,43.7,38.6,29.90,SSE,163,0.0,1.0,82,0.00,,CLR,0.00,VWS V14.01,2013-04-24 06:57:00,
2013-04-24 03:00:00,42.4,37.6,29.89,WSW,254,0.0,2.0,83,0.00,,CLR,0.00,VWS V14.01,2013-04-24 07:00:00,
2013-04-24 03:02:00,43.1,38.3,29.90,SSE,163,0.0,0.0,83,0.00,,SCT100,0.00,VWS V14.01,2013-04-24 07:02:00,
2013-04-24 03:07:00,42.4,37.6,29.89,WSW,254,0.0,2.0,83,0.00,,SCT100,0.00,VWS V14.01,2013-04-24 07:07:00,
2013-04-24 03:10:00,42.3,38.4,29.89,WSW,255,2.0,2.0,86,0.00,,CLR,0.00,VWS V14.01,2013-04-24 07:10:00,
2013-04-24 03:12:00,42.1,37.6,29.89,WSW,254,0.0,1.0,84,0.00,,SCT100,0.00,VWS V14.01,2013-04-24 07:12:00,
2013-04-24 03:17:00,42.3,38.4,29.89,WSW,255,2.0,2.0,86,0.00,,SCT100,0.00,VWS V14.01,2013-04-24 07:17:00,
2013-04-24 03:20:00,41.5,37.6,29.89,WSW,254,1.0,2.0,86,0.00,,CLR,0.00,VWS V14.01,2013-04-24 07:20:00,
2013-04-24 03:22:00,42.1,38.2,29.89,WSW,254,2.0,2.0,86,0.00,,SCT100,0.00,VWS V14.01,2013-04-24 07:22:00,
2013-04-24 03:27:00,41.5,37.6,29.89,WSW,254,1.0,2.0,86,0.00,,SCT100,0.00,VWS V14.01,2013-04-24 07:27:00,
2013-04-24 03:30:00,41.5,37.9,29.89,WSW,255,0.0,2.0,87,0.00,,CLR,0.00,VWS V14.01,2013-04-24 07:30:00,
2013-04-24 03:32:00,41.5,37.9,29.89,WSW,255,0.0,1.0,87,0.00,,SCT100,0.00,VWS V14.01,2013-04-24 07:32:00,
2013-04-24 03:37:00,41.5,37.9,29.89,WSW,255,0.0,0.0,87,0.00,,SCT100,0.00,VWS V14.01,2013-04-24 07:37:00,
2013-04-24 03:40:00,41.5,37.9,29.89,WSW,255,1.0,2.0,87,0.00,,CLR,0.00,VWS V14.01,2013-04-24 07:40:00,
2013-04-24 03:42:00,41.5,37.9,29.89,WSW,255,1.0,1.0,87,0.00,,SCT100,0.00,VWS V14.01,2013-04-24 07:42:00,
2013-04-24 03:47:00,41.5,37.9,29.89,WSW,255,1.0,1.0,87,0.00,,SCT100,0.00,VWS V14.01,2013-04-24 07:47:00,
2013-04-24 03:50:00,41.3,38.0,29.89,WSW,255,0.0,3.0,88,0.00,,CLR,0.00,VWS V14.01,2013-04-24 07:50:00,
2013-04-24 03:52:00,41.1,37.8,29.89,WSW,254,0.0,3.0,88,0.00,,SCT100,0.00,VWS V14.01,2013-04-24 07:52:00,
2013-04-24 03:57:00,41.3,38.0,29.89,WSW,255,0.0,1.0,88,0.00,,SCT100,0.00,VWS V14.01,2013-04-24 07:57:00,
2013-04-24 04:00:00,41.0,38.0,29.89,WSW,254,2.0,3.0,89,0.00,,CLR,0.00,VWS V14.01,2013-04-24 08:00:00,
2013-04-24 04:02:00,41.1,37.8,29.89,WSW,254,0.0,2.0,88,0.00,,BKN100,0.00,VWS V14.01,2013-04-24 08:02:00,
2013-04-24 04:07:00,41.0,38.0,29.89,WSW,255,1.0,2.0,89,0.00,,BKN100,0.00,VWS V14.01,2013-04-24 08:07:00,
2013-04-24 04:10:00,41.1,38.1,29.89,WSW,254,0.0,3.0,89,0.00,,CLR,0.00,VWS V14.01,2013-04-24 08:10:00,
2013-04-24 04:12:00,41.0,38.0,29.89,WSW,255,0.0,2.0,89,0.00,,BKN100,0.00,VWS V14.01,2013-04-24 08:12:00,
2013-04-24 04:17:00,41.1,38.1,29.89,WSW,254,0.0,0.0,89,0.00,,BKN100,0.00,VWS V14.01,2013-04-24 08:17:00,
2013-04-24 04:20:00,40.6,37.6,29.89,WSW,255,3.0,3.0,89,0.00,,CLR,0.00,VWS V14.01,2013-04-24 08:20:00,
2013-04-24 04:22:00,40.9,37.9,29.89,WSW,254,1.0,3.0,89,0.00,,BKN100,0.00,VWS V14.01,2013-04-24 08:22:00,
2013-04-24 04:27:00,40.6,37.6,29.89,WSW,254,2.0,3.0,89,0.00,,BKN100,0.00,VWS V14.01,2013-04-24 08:27:00,
2013-04-24 04:30:00,40.6,37.9,29.89,WSW,255,3.0,4.0,90,0.00,,CLR,0.00,VWS V14.01,2013-04-24 08:30:00,
2013-04-24 04:32:00,40.5,37.5,29.89,WSW,255,2.0,4.0,89,0.00,,BKN100,0.00,VWS V14.01,2013-04-24 08:32:00,
2013-04-24 04:37:00,40.6,37.9,29.89,WSW,255,2.0,3.0,90,0.00,,BKN100,0.00,VWS V14.01,2013-04-24 08:37:00,
2013-04-24 04:40:00,41.0,38.3,29.89,WSW,255,3.0,4.0,90,0.00,,CLR,0.00,VWS V14.01,2013-04-24 08:40:00,
2013-04-24 04:42:00,40.9,38.2,29.89,WSW,255,3.0,4.0,90,0.00,,BKN100,0.00,VWS V14.01,2013-04-24 08:42:00,
2013-04-24 04:47:00,41.0,38.3,29.89,WSW,255,4.0,4.0,90,0.00,,BKN100,0.00,VWS V14.01,2013-04-24 08:47:00,
2013-04-24 04:50:00,41.0,38.3,29.89,WSW,255,2.0,4.0,90,0.00,,CLR,0.00,VWS V14.01,2013-04-24 08:50:00,
2013-04-24 04:52:00,41.0,38.3,29.89,WSW,254,3.0,4.0,90,0.00,,BKN100,0.00,VWS V14.01,2013-04-24 08:52:00,
2013-04-24 04:57:00,41.0,38.3,29.89,WSW,255,2.0,2.0,90,0.00,,BKN100,0.00,VWS V14.01,2013-04-24 08:57:00,
2013-04-24 05:00:00,40.9,38.2,29.89,WSW,255,3.0,4.0,90,0.00,,CLR,0.00,VWS V14.01,2013-04-24 09:00:00,
2013-04-24 05:03:00,41.1,38.4,29.89,WSW,254,4.0,4.0,90,0.00,,CLR,0.00,VWS V14.01,2013-04-24 09:03:00,
2013-04-24 05:08:00,40.9,38.2,29.89,WSW,255,2.0,3.0,90,0.00,,CLR,0.00,VWS V14.01,2013-04-24 09:08:00,
2013-04-24 05:10:00,40.7,38.0,29.89,WSW,254,3.0,3.0,90,0.00,,CLR,0.00,VWS V14.01,2013-04-24 09:10:00,
2013-04-24 05:13:00,40.9,38.2,29.89,WSW,255,2.0,3.0,90,0.00,,CLR,0.00,VWS V14.01,2013-04-24 09:13:00,
2013-04-24 05:18:00,40.6,37.9,29.89,WSW,255,3.0,3.0,90,0.00,,CLR,0.00,VWS V14.01,2013-04-24 09:18:00,
2013-04-24 05:20:00,40.7,38.0,29.89,WSW,255,1.0,3.0,90,0.00,,CLR,0.00,VWS V14.01,2013-04-24 09:20:00,
2013-04-24 05:23:00,40.5,37.8,29.89,WSW,254,1.0,3.0,90,0.00,,CLR,0.00,VWS V14.01,2013-04-24 09:23:00,
2013-04-24 05:28:00,40.8,38.4,29.89,WSW,255,2.0,2.0,91,0.00,,CLR,0.00,VWS V14.01,2013-04-24 09:28:00,
2013-04-24 05:30:00,40.3,37.6,29.89,WSW,254,2.0,3.0,90,0.00,,CLR,0.00,VWS V14.01,2013-04-24 09:30:00,
2013-04-24 05:33:00,40.8,38.1,29.89,WSW,254,0.0,2.0,90,0.00,,CLR,0.00,VWS V14.01,2013-04-24 09:33:00,
2013-04-24 05:38:00,40.4,37.7,29.89,WSW,254,1.0,2.0,90,0.00,,CLR,0.00,VWS V14.01,2013-04-24 09:38:00,
2013-04-24 05:40:00,40.2,37.5,29.89,WSW,255,0.0,2.0,90,0.00,,CLR,0.00,VWS V14.01,2013-04-24 09:40:00,
2013-04-24 05:43:00,40.7,38.3,29.89,WSW,255,0.0,2.0,91,0.00,,CLR,0.00,VWS V14.01,2013-04-24 09:43:00,
2013-04-24 05:48:00,40.1,37.4,29.89,WSW,255,0.0,0.0,90,0.00,,CLR,0.00,VWS V14.01,2013-04-24 09:48:00,
2013-04-24 05:50:00,39.6,37.2,29.89,WSW,254,0.0,1.0,91,0.00,,CLR,0.00,VWS V14.01,2013-04-24 09:50:00,
2013-04-24 05:53:00,39.8,37.1,29.89,WSW,255,1.0,1.0,90,0.00,,CLR,0.00,VWS V14.01,2013-04-24 09:53:00,
2013-04-24 05:58:00,39.6,37.2,29.89,WSW,255,0.0,0.0,91,0.00,,CLR,0.00,VWS V14.01,2013-04-24 09:58:00,
2013-04-24 06:00:00,39.3,36.9,29.89,WSW,255,0.0,0.0,91,0.00,,CLR,0.00,VWS V14.01,2013-04-24 10:00:00,
2013-04-24 06:03:00,39.4,37.0,29.89,WSW,255,0.0,0.0,91,0.00,,BKN095,0.00,VWS V14.01,2013-04-24 10:03:00,
2013-04-24 06:08:00,39.3,36.9,29.89,WSW,254,0.0,1.0,91,0.00,,BKN095,0.00,VWS V14.01,2013-04-24 10:08:00,
2013-04-24 06:10:00,39.3,36.9,29.89,WSW,255,0.0,1.0,91,0.00,,CLR,0.00,VWS V14.01,2013-04-24 10:10:00,
2013-04-24 06:13:00,39.3,36.9,29.89,WSW,255,0.0,1.0,91,0.00,,BKN095,0.00,VWS V14.01,2013-04-24 10:13:00,
2013-04-24 06:18:00,39.3,36.9,29.89,WSW,254,0.0,0.0,91,0.00,,BKN095,0.00,VWS V14.01,2013-04-24 10:18:00,
2013-04-24 06:20:00,38.9,36.5,29.90,WSW,254,0.0,1.0,91,0.00,,CLR,0.00,VWS V14.01,2013-04-24 10:20:00,
2013-04-24 06:23:00,39.1,36.7,29.90,WSW,255,0.0,1.0,91,0.00,,BKN095,0.00,VWS V14.01,2013-04-24 10:23:00,
2013-04-24 06:28:00,38.9,36.5,29.90,WSW,255,0.0,0.0,91,0.00,,BKN095,0.00,VWS V14.01,2013-04-24 10:28:00,
2013-04-24 06:30:00,39.0,36.9,29.90,WSW,255,0.0,1.0,92,0.00,,CLR,0.00,VWS V14.01,2013-04-24 10:30:00,
2013-04-24 06:33:00,39.1,37.0,29.90,WSW,254,0.0,1.0,92,0.00,,BKN095,0.00,VWS V14.01,2013-04-24 10:33:00,
2013-04-24 06:38:00,39.0,36.9,29.90,WSW,254,0.0,0.0,92,0.00,,BKN095,0.00,VWS V14.01,2013-04-24 10:38:00,
2013-04-24 06:40:00,38.9,36.8,29.90,WSW,254,0.0,0.0,92,0.00,,CLR,0.00,VWS V14.01,2013-04-24 10:40:00,
2013-04-24 06:43:00,38.9,36.8,29.90,WSW,255,0.0,0.0,92,0.00,,BKN095,0.00,VWS V14.01,2013-04-24 10:43:00,
2013-04-24 06:48:00,38.9,36.8,29.90,WSW,254,0.0,0.0,92,0.00,,BKN095,0.00,VWS V14.01,2013-04-24 10:48:00,
2013-04-24 06:50:00,39.0,37.2,29.89,WSW,254,0.0,1.0,93,0.00,,CLR,0.00,VWS V14.01,2013-04-24 10:50:00,
2013-04-24 06:53:00,38.9,36.8,29.89,WSW,255,0.0,0.0,92,0.00,,BKN095,0.00,VWS V14.01,2013-04-24 10:53:00,
2013-04-24 06:58:00,39.0,37.2,29.89,WSW,254,0.0,0.0,93,0.00,,BKN095,0.00,VWS V14.01,2013-04-24 10:58:00,
2013-04-24 07:00:00,39.1,37.2,29.89,WSW,254,0.0,0.0,93,0.00,,CLR,0.00,VWS V14.01,2013-04-24 11:00:00,
2013-04-24 07:03:00,39.0,37.2,29.89,WSW,254,0.0,0.0,93,0.00,,CLR,0.00,VWS V14.01,2013-04-24 11:03:00,
2013-04-24 07:08:00,39.1,37.2,29.89,WSW,255,1.0,1.0,93,0.00,,CLR,0.00,VWS V14.01,2013-04-24 11:08:00,
2013-04-24 07:10:00,39.6,37.8,29.89,WSW,255,0.0,2.0,93,0.00,,CLR,0.00,VWS V14.01,2013-04-24 11:10:00,
2013-04-24 07:13:00,39.0,37.2,29.89,WSW,254,0.0,2.0,93,0.00,,CLR,0.00,VWS V14.01,2013-04-24 11:13:00,
2013-04-24 07:18:00,39.6,37.8,29.89,WSW,255,0.0,1.0,93,0.00,,CLR,0.00,VWS V14.01,2013-04-24 11:18:00,
2013-04-24 07:20:00,40.1,38.2,29.90,WSW,255,0.0,2.0,93,0.00,,CLR,0.00,VWS V14.01,2013-04-24 11:20:00,
2013-04-24 07:40:00,42.3,40.4,29.90,SW,233,0.0,1.0,93,0.00,,,0.00,VWS V14.01,2013-04-24 11:40:00,
2013-04-24 07:42:00,41.6,40.0,29.90,SW,233,0.0,0.0,94,0.00,,CLR,0.00,VWS V14.01,2013-04-24 11:42:00,
2013-04-24 07:47:00,42.2,40.3,29.90,SW,233,0.0,1.0,93,0.00,,CLR,0.00,VWS V14.01,2013-04-24 11:47:00,
2013-04-24 07:50:00,43.1,41.2,29.89,SW,234,0.0,0.0,93,0.00,,,0.00,VWS V14.01,2013-04-24 11:50:00,
2013-04-24 07:52:00,42.7,40.8,29.89,SW,234,0.0,0.0,93,0.00,,CLR,0.00,VWS V14.01,2013-04-24 11:52:00,
2013-04-24 07:57:00,43.0,41.1,29.89,SW,234,0.0,0.0,93,0.00,,CLR,0.00,VWS V14.01,2013-04-24 11:57:00,
2013-04-24 08:00:00,43.8,41.9,29.88,SW,233,0.0,2.0,93,0.00,,,0.00,VWS V14.01,2013-04-24 12:00:00,
2013-04-24 08:02:00,43.0,41.1,29.89,SW,233,0.0,1.0,93,0.00,,CLR,0.00,VWS V14.01,2013-04-24 12:02:00,
2013-04-24 08:07:00,43.8,41.9,29.88,SW,233,1.0,2.0,93,0.00,,CLR,0.00,VWS V14.01,2013-04-24 12:07:00,
2013-04-24 08:10:00,44.0,41.8,29.88,SW,233,0.0,1.0,92,0.00,,,0.00,VWS V14.01,2013-04-24 12:10:00,
2013-04-24 08:12:00,44.1,42.2,29.88,SW,233,0.0,1.0,93,0.00,,CLR,0.00,VWS V14.01,2013-04-24 12:12:00,
2013-04-24 08:17:00,43.9,41.7,29.88,SW,234,0.0,1.0,92,0.00,,CLR,0.00,VWS V14.01,2013-04-24 12:17:00,
2013-04-24 08:20:00,45.2,43.0,29.88,SW,234,0.0,1.0,92,0.00,,,0.00,VWS V14.01,2013-04-24 12:20:00,
2013-04-24 08:22:00,44.6,42.4,29.88,SW,233,0.0,1.0,92,0.00,,CLR,0.00,VWS V14.01,2013-04-24 12:22:00,
2013-04-24 08:27:00,45.1,42.9,29.88,SW,233,0.0,1.0,92,0.00,,CLR,0.00,VWS V14.01,2013-04-24 12:27:00,
2013-04-24 08:30:00,45.4,42.9,29.87,SW,234,0.0,2.0,91,0.00,,,0.00,VWS V14.01,2013-04-24 12:30:00,
2013-04-24 08:32:00,45.4,42.9,29.88,SW,233,0.0,1.0,91,0.00,,CLR,0.00,VWS V14.01,2013-04-24 12:32:00,
2013-04-24 08:37:00,45.4,42.9,29.87,SW,234,0.0,2.0,91,0.00,,CLR,0.00,VWS V14.01,2013-04-24 12:37:00,
2013-04-24 08:40:00,46.5,43.7,29.87,WSW,248,1.0,2.0,90,0.00,,,0.00,VWS V14.01,2013-04-24 12:40:00,
2013-04-24 08:42:00,45.4,42.9,29.87,SW,234,0.0,1.0,91,0.00,,CLR,0.00,VWS V14.01,2013-04-24 12:42:00,
2013-04-24 08:47:00,46.4,43.6,29.87,WSW,248,0.0,1.0,90,0.00,,CLR,0.00,VWS V14.01,2013-04-24 12:47:00,
2013-04-24 08:50:00,47.4,44.0,29.87,WSW,248,0.0,2.0,88,0.00,,,0.00,VWS V14.01,2013-04-24 12:50:00,
2013-04-24 08:52:00,47.4,44.6,29.87,WSW,248,0.0,1.0,90,0.00,,CLR,0.00,VWS V14.01,2013-04-24 12:52:00,
2013-04-24 08:57:00,47.4,44.0,29.87,WSW,248,0.0,2.0,88,0.00,,CLR,0.00,VWS V14.01,2013-04-24 12:57:00,
2013-04-24 09:00:00,48.4,44.4,29.86,WSW,248,0.0,2.0,86,0.00,,,0.00,VWS V14.01,2013-04-24 13:00:00,
2013-04-24 09:02:00,47.5,44.1,29.87,WSW,248,0.0,2.0,88,0.00,,CLR,0.00,VWS V14.01,2013-04-24 13:02:00,
2013-04-24 09:07:00,48.3,45.5,29.86,WSW,248,0.0,2.0,90,0.00,,CLR,0.00,VWS V14.01,2013-04-24 13:07:00,
2013-04-24 09:10:00,49.5,44.6,29.86,WSW,248,1.0,3.0,83,0.00,,,0.00,VWS V14.01,2013-04-24 13:10:00,
2013-04-24 09:12:00,48.9,44.6,29.86,WSW,248,1.0,3.0,85,0.00,,CLR,0.00,VWS V14.01,2013-04-24 13:12:00,
2013-04-24 09:17:00,49.4,44.8,29.86,WSW,248,1.0,3.0,84,0.00,,CLR,0.00,VWS V14.01,2013-04-24 13:17:00,
2013-04-24 09:20:00,50.1,44.2,29.86,WSW,248,1.0,4.0,80,0.00,,,0.00,VWS V14.01,2013-04-24 13:20:00,
2013-04-24 09:22:00,49.9,44.3,29.86,WSW,248,3.0,4.0,81,0.00,,CLR,0.00,VWS V14.01,2013-04-24 13:22:00,
2013-04-24 09:27:00,50.1,44.2,29.86,WSW,248,1.0,4.0,80,0.00,,CLR,0.00,VWS V14.01,2013-04-24 13:27:00,
2013-04-24 09:30:00,50.4,44.5,29.85,West,271,2.0,3.0,80,0.00,,,0.00,VWS V14.01,2013-04-24 13:30:00,
2013-04-24 09:32:00,50.1,44.2,29.86,WSW,248,0.0,2.0,80,0.00,,CLR,0.00,VWS V14.01,2013-04-24 13:32:00,
2013-04-24 09:37:00,50.3,44.4,29.85,WSW,257,0.0,3.0,80,0.00,,CLR,0.00,VWS V14.01,2013-04-24 13:37:00,
2013-04-24 09:40:00,51.2,44.9,29.85,SW,232,0.0,4.0,79,0.00,,,0.00,VWS V14.01,2013-04-24 13:40:00,
2013-04-24 09:42:00,50.8,44.9,29.85,WSW,242,0.0,3.0,80,0.00,,CLR,0.00,VWS V14.01,2013-04-24 13:42:00,
2013-04-24 09:47:00,51.2,44.9,29.85,SW,232,0.0,4.0,79,0.00,,CLR,0.00,VWS V14.01,2013-04-24 13:47:00,
2013-04-24 09:50:00,52.6,46.0,29.84,SW,221,2.0,4.0,78,0.00,,,0.00,VWS V14.01,2013-04-24 13:50:00,
2013-04-24 09:52:00,51.6,45.3,29.84,SW,232,2.0,2.0,79,0.00,,CLR,0.00,VWS V14.01,2013-04-24 13:52:00,
2013-04-24 09:57:00,52.5,46.2,29.84,SW,221,3.0,4.0,79,0.00,,CLR,0.00,VWS V14.01,2013-04-24 13:57:00,
2013-04-24 10:00:00,53.8,46.4,29.84,SW,234,2.0,4.0,76,0.00,,,0.00,VWS V14.01,2013-04-24 14:00:00,
2013-04-24 10:02:00,53.3,46.3,29.84,SW,227,2.0,4.0,77,0.00,,OVC065,0.00,VWS V14.01,2013-04-24 14:02:00,
2013-04-24 10:07:00,53.8,46.4,29.84,SW,234,2.0,4.0,76,0.00,,OVC065,0.00,VWS V14.01,2013-04-24 14:07:00,
2013-04-24 10:10:00,55.5,48.1,29.84,SW,217,0.0,5.0,76,0.00,,,0.00,VWS V14.01,2013-04-24 14:10:00,
2013-04-24 10:12:00,54.2,46.8,29.84,WSW,240,1.0,5.0,76,0.00,,OVC065,0.00,VWS V14.01,2013-04-24 14:12:00,
2013-04-24 10:17:00,55.4,48.0,29.84,SW,217,0.0,5.0,76,0.00,,OVC065,0.00,VWS V14.01,2013-04-24 14:17:00,
2013-04-24 10:20:00,58.2,48.8,29.82,WSW,244,0.0,6.0,71,0.00,,,0.00,VWS V14.01,2013-04-24 14:20:00,
2013-04-24 10:22:00,57.2,49.7,29.82,West,279,1.0,4.0,76,0.00,,OVC065,0.00,VWS V14.01,2013-04-24 14:22:00,
2013-04-24 10:27:00,58.2,48.8,29.82,WSW,244,0.0,6.0,71,0.00,,OVC065,0.00,VWS V14.01,2013-04-24 14:27:00,
2013-04-24 10:30:00,61.0,50.8,29.79,WSW,241,7.0,10.0,69,0.00,,,0.00,VWS V14.01,2013-04-24 14:30:00,
2013-04-24 10:32:00,59.9,50.1,29.82,West,269,1.0,6.0,70,0.00,,OVC065,0.00,VWS V14.01,2013-04-24 14:32:00,
2013-04-24 10:37:00,61.0,50.8,29.79,WSW,250,5.0,10.0,69,0.00,,OVC065,0.00,VWS V14.01,2013-04-24 14:37:00,
2013-04-24 10:40:00,62.8,50.0,29.79,WSW,246,9.0,14.0,63,0.00,,,0.00,VWS V14.01,2013-04-24 14:40:00,
2013-04-24 10:42:00,62.1,50.2,29.79,WSW,237,6.0,13.0,65,0.00,,OVC065,0.00,VWS V14.01,2013-04-24 14:42:00,
2013-04-24 10:47:00,62.8,50.0,29.79,WSW,240,7.0,14.0,63,0.00,,OVC065,0.00,VWS V14.01,2013-04-24 14:47:00,
2013-04-24 10:50:00,63.4,50.6,29.79,West,263,12.0,16.0,63,0.00,,,0.00,VWS V14.01,2013-04-24 14:50:00,
2013-04-24 10:52:00,63.0,50.2,29.79,SW,229,11.0,15.0,63,0.00,,OVC065,0.00,VWS V14.01,2013-04-24 14:52:00,
2013-04-24 10:57:00,63.3,50.1,29.79,WNW,290,13.0,16.0,62,0.00,,OVC065,0.00,VWS V14.01,2013-04-24 14:57:00,
2013-04-24 11:00:00,64.6,50.9,29.78,SW,217,7.0,17.0,61,0.00,,,0.00,VWS V14.01,2013-04-24 15:00:00,
2013-04-24 11:02:00,64.2,51.4,29.79,SSW,211,10.0,17.0,63,0.00,,OVC034,0.00,VWS V14.01,2013-04-24 15:02:00,
2013-04-24 11:09:00,65.1,52.6,29.78,WSW,242,9.0,13.0,64,0.00,,OVC034,0.00,VWS V14.01,2013-04-24 15:09:00,
2013-04-24 11:10:00,65.4,51.6,29.78,West,269,6.0,17.0,61,0.00,,,0.00,VWS V14.01,2013-04-24 15:10:00,
2013-04-24 11:14:00,65.1,51.3,29.78,SW,225,3.0,17.0,61,0.00,,OVC034,0.00,VWS V14.01,2013-04-24 15:14:00,
2013-04-24 11:19:00,65.4,51.6,29.78,NW,304,5.0,14.0,61,0.00,,OVC034,0.00,VWS V14.01,2013-04-24 15:19:00,
2013-04-24 11:20:00,65.9,51.6,29.76,SW,223,4.0,17.0,60,0.00,,,0.00,VWS V14.01,2013-04-24 15:20:00,
2013-04-24 11:24:00,65.4,51.6,29.76,South,190,0.0,17.0,61,0.00,,OVC034,0.00,VWS V14.01,2013-04-24 15:24:00,
2013-04-24 11:29:00,66.2,53.2,29.76,West,275,3.0,13.0,63,0.00,,OVC034,0.00,VWS V14.01,2013-04-24 15:29:00,
2013-04-24 11:30:00,66.6,53.2,29.76,WNW,296,5.0,17.0,62,0.00,,,0.00,VWS V14.01,2013-04-24 15:30:00,
2013-04-24 11:34:00,66.6,51.8,29.76,WSW,257,15.0,17.0,59,0.00,,OVC034,0.00,VWS V14.01,2013-04-24 15:34:00,
2013-04-24 11:39:00,66.9,53.0,29.76,SSW,207,0.0,11.0,61,0.00,,OVC034,0.00,VWS V14.01,2013-04-24 15:39:00,
2013-04-24 11:40:00,67.0,52.7,29.76,SW,225,4.0,16.0,60,0.00,,,0.00,VWS V14.01,2013-04-24 15:40:00,
2013-04-24 11:44:00,66.5,52.2,29.76,SSW,195,5.0,15.0,60,0.00,,OVC034,0.00,VWS V14.01,2013-04-24 15:44:00,
2013-04-24 11:49:00,66.8,51.6,29.76,SW,236,4.0,12.0,58,0.00,,OVC034,0.00,VWS V14.01,2013-04-24 15:49:00,
2013-04-24 11:50:00,66.8,52.5,29.75,WSW,250,5.0,15.0,60,0.00,,,0.00,VWS V14.01,2013-04-24 15:50:00,
2013-04-24 11:54:00,66.4,51.7,29.75,WSW,248,4.0,15.0,59,0.00,,OVC034,0.00,VWS V14.01,2013-04-24 15:54:00,
2013-04-24 11:59:00,67.0,52.2,29.75,WSW,256,5.0,9.0,59,0.00,,OVC034,0.00,VWS V14.01,2013-04-24 15:59:00,
2013-04-24 12:00:00,68.2,52.9,29.74,WSW,237,3.0,12.0,58,0.00,,,0.00,VWS V14.01,2013-04-24 16:00:00,
2013-04-24 12:04:00,68.2,53.3,29.75,SW,222,3.0,12.0,59,0.00,,BKN050,0.00,VWS V14.01,2013-04-24 16:04:00,
2013-04-24 12:09:00,68.5,54.1,29.74,SSE,147,9.0,11.0,60,0.00,,BKN050,0.00,VWS V14.01,2013-04-24 16:09:00,
2013-04-24 12:10:00,69.0,53.2,29.74,SSW,200,2.0,16.0,57,0.00,,,0.00,VWS V14.01,2013-04-24 16:10:00,
2013-04-24 12:14:00,68.9,54.0,29.74,SSE,161,4.0,16.0,59,0.00,,BKN050,0.00,VWS V14.01,2013-04-24 16:14:00,
2013-04-24 12:19:00,68.9,52.1,29.74,SE,146,3.0,13.0,55,0.00,,BKN050,0.00,VWS V14.01,2013-04-24 16:19:00,
2013-04-24 12:20:00,68.9,53.1,29.74,SW,223,12.0,13.0,57,0.00,,,0.00,VWS V14.01,2013-04-24 16:20:00,
2013-04-24 12:24:00,68.6,52.3,29.74,SE,137,5.0,13.0,56,0.00,,BKN050,0.00,VWS V14.01,2013-04-24 16:24:00,
2013-04-24 12:29:00,68.7,52.4,29.74,ESE,121,4.0,14.0,56,0.00,,BKN050,0.00,VWS V14.01,2013-04-24 16:29:00,
2013-04-24 12:30:00,69.3,53.4,29.72,South,182,5.0,15.0,57,0.00,,,0.00,VWS V14.01,2013-04-24 16:30:00,
2013-04-24 12:34:00,68.9,53.5,29.74,South,184,8.0,14.0,58,0.00,,BKN050,0.00,VWS V14.01,2013-04-24 16:34:00,
2013-04-24 12:39:00,69.2,52.4,29.72,WSW,238,5.0,13.0,55,0.00,,BKN050,0.00,VWS V14.01,2013-04-24 16:39:00,
2013-04-24 12:40:00,68.7,52.9,29.72,West,259,7.0,14.0,57,0.00,,,0.00,VWS V14.01,2013-04-24 16:40:00,
2013-04-24 12:44:00,68.8,52.5,29.72,SW,230,9.0,13.0,56,0.00,,BKN050,0.00,VWS V14.01,2013-04-24 16:44:00,
2013-04-24 12:49:00,68.8,53.4,29.72,SSW,206,12.0,12.0,58,0.00,,BKN050,0.00,VWS V14.01,2013-04-24 16:49:00,
2013-04-24 12:50:00,68.7,53.3,29.71,SSE,149,4.0,13.0,58,0.00,,,0.00,VWS V14.01,2013-04-24 16:50:00,
2013-04-24 12:54:00,68.8,53.0,29.71,SW,219,6.0,13.0,57,0.00,,BKN050,0.00,VWS V14.01,2013-04-24 16:54:00,
2013-04-24 12:59:00,68.9,53.5,29.71,WSW,244,2.0,4.0,58,0.00,,BKN050,0.00,VWS V14.01,2013-04-24 16:59:00,
2013-04-24 13:00:00,68.8,52.5,29.72,SW,236,7.0,14.0,56,0.00,,,0.00,VWS V14.01,2013-04-24 17:00:00,
2013-04-24 13:04:00,69.1,52.8,29.71,SW,227,6.0,11.0,56,0.00,,CLR,0.00,VWS V14.01,2013-04-24 17:04:00,
2013-04-24 13:09:00,68.5,52.2,29.72,WSW,241,5.0,15.0,56,0.00,,CLR,0.00,VWS V14.01,2013-04-24 17:09:00,
2013-04-24 13:10:00,68.3,52.5,29.72,West,272,4.0,17.0,57,0.00,,,0.00,VWS V14.01,2013-04-24 17:10:00,
2013-04-24 13:14:00,68.2,52.9,29.72,WSW,248,7.0,17.0,58,0.00,,CLR,0.00,VWS V14.01,2013-04-24 17:14:00,
2013-04-24 13:19:00,68.4,52.6,29.72,SSW,200,7.0,18.0,57,0.00,,CLR,0.00,VWS V14.01,2013-04-24 17:19:00,
2013-04-24 13:20:00,68.8,53.4,29.73,SSW,207,9.0,18.0,58,0.00,,,0.00,VWS V14.01,2013-04-24 17:20:00,
2013-04-24 13:24:00,68.5,52.7,29.73,WNW,287,12.0,18.0,57,0.00,,CLR,0.00,VWS V14.01,2013-04-24 17:24:00,
2013-04-24 13:30:00,69.2,53.3,29.73,East,88,4.0,10.0,57,0.00,,CLR,0.00,VWS V14.01,2013-04-24 17:30:00,
2013-04-24 13:35:00,69.5,53.1,29.73,West,269,8.0,13.0,56,0.00,,CLR,0.00,VWS V14.01,2013-04-24 17:35:00,
2013-04-24 13:40:00,69.8,53.9,29.71,SW,215,2.0,7.0,57,0.00,,CLR,0.00,VWS V14.01,2013-04-24 17:40:00,
2013-04-24 13:45:00,69.5,52.6,29.71,SSW,199,10.0,16.0,55,0.00,,CLR,0.00,VWS V14.01,2013-04-24 17:45:00,
2013-04-24 13:50:00,70.0,53.6,29.71,SW,224,0.0,7.0,56,0.00,,CLR,0.00,VWS V14.01,2013-04-24 17:50:00,
2013-04-24 13:55:00,70.2,53.3,29.71,SW,229,4.0,11.0,55,0.00,,CLR,0.00,VWS V14.01,2013-04-24 17:55:00,
2013-04-24 14:00:00,69.8,53.4,29.71,SW,215,3.0,6.0,56,0.00,,CLR,0.00,VWS V14.01,2013-04-24 18:00:00,
2013-04-24 14:05:00,69.6,53.2,29.71,WSW,252,2.0,9.0,56,0.00,,FEW044,0.00,VWS V14.01,2013-04-24 18:05:00,
2013-04-24 14:10:00,69.6,53.2,29.69,SW,215,9.0,9.0,56,0.00,,FEW044,0.00,VWS V14.01,2013-04-24 18:10:00,
2013-04-24 14:15:00,69.7,53.3,29.69,SSE,161,3.0,12.0,56,0.00,,FEW044,0.00,VWS V14.01,2013-04-24 18:15:00,
2013-04-24 14:20:00,70.0,54.1,29.69,South,180,3.0,6.0,57,0.00,,FEW044,0.00,VWS V14.01,2013-04-24 18:20:00,
2013-04-24 14:25:00,70.5,53.6,29.70,West,272,5.0,10.0,55,0.00,,FEW044,0.00,VWS V14.01,2013-04-24 18:25:00,
2013-04-24 14:30:00,71.2,54.2,29.70,SW,232,2.0,10.0,55,0.00,,FEW044,0.00,VWS V14.01,2013-04-24 18:30:00,
2013-04-24 14:35:00,71.2,52.7,29.70,SSW,207,6.0,12.0,52,0.00,,FEW044,0.00,VWS V14.01,2013-04-24 18:35:00,
2013-04-24 14:40:00,71.7,53.2,29.68,SSW,202,7.0,7.0,52,0.00,,FEW044,0.00,VWS V14.01,2013-04-24 18:40:00,
2013-04-24 14:45:00,71.8,54.3,29.68,South,182,3.0,15.0,54,0.00,,FEW044,0.00,VWS V14.01,2013-04-24 18:45:00,
2013-04-24 14:50:00,71.9,53.3,29.68,SE,142,2.0,7.0,52,0.00,,FEW044,0.00,VWS V14.01,2013-04-24 18:50:00,
2013-04-24 14:55:00,71.8,52.7,29.66,West,264,7.0,15.0,51,0.00,,FEW044,0.00,VWS V14.01,2013-04-24 18:55:00,
2013-04-24 15:00:00,71.1,53.1,29.66,WSW,254,4.0,10.0,53,0.00,,FEW044,0.00,VWS V14.01,2013-04-24 19:00:00,
2013-04-24 15:05:00,70.6,53.2,29.66,West,259,8.0,14.0,54,0.00,,OVC090,0.00,VWS V14.01,2013-04-24 19:05:00,
2013-04-24 15:10:00,70.1,52.2,29.67,SW,230,5.0,16.0,53,0.00,,OVC090,0.00,VWS V14.01,2013-04-24 19:10:00,
2013-04-24 15:15:00,70.1,52.2,29.67,SSW,213,6.0,16.0,53,0.00,,OVC090,0.00,VWS V14.01,2013-04-24 19:15:00,
2013-04-24 15:20:00,70.2,52.8,29.67,SW,225,11.0,16.0,54,0.00,,OVC090,0.00,VWS V14.01,2013-04-24 19:20:00,
2013-04-24 15:25:00,69.6,52.7,29.65,West,263,13.0,16.0,55,0.00,,OVC090,0.00,VWS V14.01,2013-04-24 19:25:00,
2013-04-24 15:30:00,67.6,53.7,29.65,WNW,288,36.0,36.0,61,0.00,,OVC090,0.00,VWS V14.01,2013-04-24 19:30:00,
2013-04-24 15:35:00,58.6,52.8,29.65,West,265,22.0,40.0,81,0.08,,OVC090,0.08,VWS V14.01,2013-04-24 19:35:00,
2013-04-24 15:40:00,56.8,53.3,29.76,WNW,288,19.0,27.0,88,0.18,,OVC090,0.18,VWS V14.01,2013-04-24 19:40:00,
2013-04-24 15:45:00,56.3,53.4,29.76,WNW,283,15.0,27.0,90,0.21,,OVC090,0.21,VWS V14.01,2013-04-24 19:45:00,
2013-04-24 15:50:00,56.4,53.8,29.76,WNW,300,22.0,27.0,91,0.22,,OVC090,0.22,VWS V14.01,2013-04-24 19:50:00,
2013-04-24 15:55:00,56.7,54.1,29.75,West,263,13.0,27.0,91,0.23,,OVC090,0.23,VWS V14.01,2013-04-24 19:55:00,
2013-04-24 16:00:00,57.2,54.3,29.75,WSW,248,18.0,23.0,90,0.23,,OVC090,0.23,VWS V14.01,2013-04-24 20:00:00,
2013-04-24 16:05:00,57.6,54.4,29.75,SW,233,7.0,23.0,89,0.23,,-RA,0.23,VWS V14.01,2013-04-24 20:05:00,
2013-04-24 16:10:00,57.8,54.6,29.72,WSW,251,13.0,17.0,89,0.23,,-RA,0.23,VWS V14.01,2013-04-24 20:10:00,
2013-04-24 16:15:00,58.4,55.5,29.72,West,264,9.0,17.0,90,0.23,,-RA,0.23,VWS V14.01,2013-04-24 20:15:00,
2013-04-24 16:20:00,59.0,55.5,29.72,WSW,244,9.0,19.0,88,0.23,,-RA,0.23,VWS V14.01,2013-04-24 20:20:00,
2013-04-24 16:25:00,59.5,55.6,29.71,SW,233,13.0,19.0,87,0.23,,-RA,0.23,VWS V14.01,2013-04-24 20:25:00,
2013-04-24 16:30:00,60.3,56.1,29.71,West,262,7.0,15.0,86,0.23,,-RA,0.23,VWS V14.01,2013-04-24 20:30:00,
2013-04-24 16:35:00,60.8,55.9,29.71,West,266,6.0,19.0,84,0.23,,-RA,0.23,VWS V14.01,2013-04-24 20:35:00,
2013-04-24 16:40:00,61.0,55.5,29.70,WSW,250,23.0,26.0,82,0.11,,-RA,0.23,VWS V14.01,2013-04-24 20:40:00,
2013-04-24 16:45:00,60.2,55.0,29.70,West,265,11.0,28.0,83,0.11,,-RA,0.23,VWS V14.01,2013-04-24 20:45:00,
2013-04-24 16:50:00,59.9,55.4,29.70,WSW,246,12.0,26.0,85,0.02,,-RA,0.23,VWS V14.01,2013-04-24 20:50:00,
2013-04-24 16:55:00,59.8,55.0,29.73,West,261,19.0,30.0,84,0.02,,-RA,0.23,VWS V14.01,2013-04-24 20:55:00,
2013-04-24 17:00:00,59.1,54.6,29.73,WSW,252,34.0,34.0,85,0.00,,-RA,0.23,VWS V14.01,2013-04-24 21:00:00,
2013-04-24 17:05:00,58.6,54.4,29.73,West,261,16.0,34.0,86,0.01,,BKN100,0.24,VWS V14.01,2013-04-24 21:05:00,
2013-04-24 17:10:00,58.6,54.4,29.73,WSW,255,18.0,27.0,86,0.01,,BKN100,0.24,VWS V14.01,2013-04-24 21:10:00,
2013-04-24 17:15:00,58.7,54.2,29.73,WSW,246,18.0,31.0,85,0.01,,BKN100,0.24,VWS V14.01,2013-04-24 21:15:00,
2013-04-24 17:20:00,58.9,53.8,29.73,West,267,14.0,27.0,83,0.01,,BKN100,0.24,VWS V14.01,2013-04-24 21:20:00,
2013-04-24 17:25:00,59.2,53.7,29.71,West,269,27.0,34.0,82,0.01,,BKN100,0.24,VWS V14.01,2013-04-24 21:25:00,
2013-04-24 17:30:00,59.3,53.5,29.71,West,265,30.0,33.0,81,0.01,,BKN100,0.24,VWS V14.01,2013-04-24 21:30:00,
2013-04-24 17:35:00,59.3,52.8,29.71,WNW,284,25.0,38.0,79,0.01,,BKN100,0.24,VWS V14.01,2013-04-24 21:35:00,
2013-04-24 17:40:00,59.2,52.7,29.71,WSW,258,31.0,40.0,79,0.01,,BKN100,0.24,VWS V14.01,2013-04-24 21:40:00,
2013-04-24 17:45:00,59.1,52.6,29.71,WSW,248,17.0,40.0,79,0.01,,BKN100,0.24,VWS V14.01,2013-04-24 21:45:00,
2013-04-24 17:50:00,59.1,52.9,29.71,SW,223,12.0,35.0,80,0.01,,BKN100,0.24,VWS V14.01,2013-04-24 21:50:00,
2013-04-24 17:55:00,59.4,52.9,29.72,SW,236,12.0,35.0,79,0.01,,BKN100,0.24,VWS V14.01,2013-04-24 21:55:00,
2013-04-24 18:00:00,60.2,53.7,29.72,WSW,253,17.0,35.0,79,0.01,,FEW050,0.24,VWS V14.01,2013-04-24 22:00:00,
2013-04-24 18:05:00,59.8,52.9,29.72,WSW,242,21.0,35.0,78,0.01,,FEW050,0.24,VWS V14.01,2013-04-24 22:05:00,
2013-04-24 18:10:00,59.3,52.8,29.73,SSW,202,16.0,33.0,79,0.00,,FEW050,0.24,VWS V14.01,2013-04-24 22:10:00,
2013-04-24 18:16:00,58.9,52.4,29.73,WSW,240,24.0,33.0,79,0.00,,FEW050,0.24,VWS V14.01,2013-04-24 22:16:00,
2013-04-24 18:20:00,58.2,52.4,29.73,SSW,206,15.0,33.0,81,0.00,,,0.24,VWS V14.01,2013-04-24 22:20:00,
2013-04-24 18:21:00,58.6,52.5,29.73,West,266,18.0,33.0,80,0.00,,FEW050,0.24,VWS V14.01,2013-04-24 22:21:00,
2013-04-24 18:26:00,58.3,52.5,29.73,WNW,283,21.0,33.0,81,0.00,,FEW050,0.24,VWS V14.01,2013-04-24 22:26:00,
2013-04-24 18:30:00,57.9,52.5,29.73,SW,229,27.0,35.0,82,0.00,,,0.24,VWS V14.01,2013-04-24 22:30:00,
2013-04-24 18:31:00,58.1,52.3,29.73,South,191,14.0,29.0,81,0.00,,FEW050,0.24,VWS V14.01,2013-04-24 22:31:00,
2013-04-24 18:36:00,58.0,52.2,29.73,WSW,244,21.0,35.0,81,0.00,,FEW050,0.24,VWS V14.01,2013-04-24 22:36:00,
2013-04-24 18:40:00,57.7,52.2,29.73,West,259,19.0,33.0,82,0.00,,,0.24,VWS V14.01,2013-04-24 22:40:00,
2013-04-24 18:41:00,57.9,52.5,29.73,WSW,248,16.0,33.0,82,0.00,,FEW050,0.24,VWS V14.01,2013-04-24 22:41:00,
2013-04-24 18:46:00,57.7,52.2,29.73,West,279,12.0,33.0,82,0.00,,FEW050,0.24,VWS V14.01,2013-04-24 22:46:00,
2013-04-24 18:50:00,57.6,52.5,29.74,WSW,256,27.0,30.0,83,0.00,,,0.24,VWS V14.01,2013-04-24 22:50:00,
2013-04-24 18:51:00,57.6,52.5,29.73,WSW,244,18.0,26.0,83,0.00,,FEW050,0.24,VWS V14.01,2013-04-24 22:51:00,
2013-04-24 18:56:00,57.5,52.4,29.74,West,260,11.0,26.0,83,0.00,,FEW050,0.24,VWS V14.01,2013-04-24 22:56:00,
2013-04-24 19:00:00,57.5,52.7,29.74,West,268,14.0,32.0,84,0.00,,,0.24,VWS V14.01,2013-04-24 23:00:00,
2013-04-24 19:01:00,57.6,52.5,29.74,WSW,257,17.0,32.0,83,0.00,,BKN065,0.24,VWS V14.01,2013-04-24 23:01:00,
2013-04-24 19:06:00,57.5,52.7,29.74,WSW,250,25.0,32.0,84,0.00,,BKN065,0.24,VWS V14.01,2013-04-24 23:06:00,
2013-04-24 19:10:00,52.1,48.4,29.74,WNW,296,17.0,45.0,87,0.03,,,0.27,VWS V14.01,2013-04-24 23:10:00,
2013-04-24 19:11:00,57.3,52.5,29.74,WNW,292,20.0,24.0,84,0.01,,BKN065,0.25,VWS V14.01,2013-04-24 23:11:00,
2013-04-24 19:16:00,53.2,49.4,29.74,WNW,288,36.0,40.0,87,0.03,,BKN065,0.27,VWS V14.01,2013-04-24 23:16:00,
2013-04-24 19:20:00,49.4,46.9,29.79,West,275,31.0,33.0,91,0.03,,,0.27,VWS V14.01,2013-04-24 23:20:00,
2013-04-24 19:21:00,51.1,48.0,29.74,West,279,21.0,33.0,89,0.03,,BKN065,0.27,VWS V14.01,2013-04-24 23:21:00,
2013-04-24 19:26:00,49.8,47.3,29.79,West,268,27.0,33.0,91,0.03,,BKN065,0.27,VWS V14.01,2013-04-24 23:26:00,
2013-04-24 19:30:00,48.0,45.8,29.82,WNW,286,20.0,33.0,92,0.03,,,0.27,VWS V14.01,2013-04-24 23:30:00,
2013-04-24 19:31:00,48.7,46.5,29.79,WNW,292,19.0,33.0,92,0.03,,BKN065,0.27,VWS V14.01,2013-04-24 23:31:00,
2013-04-24 19:36:00,48.2,46.0,29.79,West,265,13.0,33.0,92,0.03,,BKN065,0.27,VWS V14.01,2013-04-24 23:36:00,
2013-04-24 19:40:00,46.3,44.1,29.82,WNW,284,10.0,33.0,92,0.03,,,0.27,VWS V14.01,2013-04-24 23:40:00,
2013-04-24 19:41:00,47.3,45.1,29.82,WNW,286,22.0,33.0,92,0.03,,BKN065,0.27,VWS V14.01,2013-04-24 23:41:00,
2013-04-24 19:46:00,46.5,44.6,29.82,WNW,290,16.0,33.0,93,0.03,,BKN065,0.27,VWS V14.01,2013-04-24 23:46:00,
2013-04-24 19:50:00,44.8,42.9,29.84,WNW,296,12.0,36.0,93,0.03,,,0.27,VWS V14.01,2013-04-24 23:50:00,
2013-04-24 19:51:00,45.8,43.6,29.82,WNW,290,21.0,29.0,92,0.03,,BKN065,0.27,VWS V14.01,2013-04-24 23:51:00,
2013-04-24 19:56:00,44.9,42.7,29.84,WNW,296,17.0,36.0,92,0.03,,BKN065,0.27,VWS V14.01,2013-04-24 23:56:00,
2013-04-24 20:00:00,44.3,42.4,29.88,WNW,295,13.0,32.0,93,0.04,,,0.28,VWS V14.01,2013-04-25 00:00:00,
2013-04-24 20:01:00,44.4,42.5,29.84,WNW,286,23.0,32.0,93,0.04,,OVC020,0.28,VWS V14.01,2013-04-25 00:01:00,
2013-04-24 20:06:00,44.3,42.4,29.84,West,280,18.0,32.0,93,0.04,,OVC020,0.28,VWS V14.01,2013-04-25 00:06:00,
2013-04-24 20:10:00,43.1,41.2,29.88,West,271,12.0,28.0,93,0.04,,,0.28,VWS V14.01,2013-04-25 00:10:00,
2013-04-24 20:11:00,44.0,42.1,29.88,WNW,298,11.0,23.0,93,0.04,,OVC020,0.28,VWS V14.01,2013-04-25 00:11:00,
2013-04-24 20:16:00,43.3,41.4,29.88,NW,304,23.0,28.0,93,0.04,,OVC020,0.28,VWS V14.01,2013-04-25 00:16:00,
2013-04-24 20:20:00,41.9,40.3,29.89,NW,307,15.0,26.0,94,0.01,,,0.28,VWS V14.01,2013-04-25 00:20:00,
2013-04-24 20:21:00,42.5,40.6,29.88,WNW,299,21.0,26.0,93,0.01,,OVC020,0.28,VWS V14.01,2013-04-25 00:21:00,
2013-04-24 20:26:00,42.0,40.1,29.89,WNW,288,14.0,26.0,93,0.01,,OVC020,0.28,VWS V14.01,2013-04-25 00:26:00,
2013-04-24 20:30:00,41.5,39.9,29.91,WNW,290,15.0,24.0,94,0.01,,,0.28,VWS V14.01,2013-04-25 00:30:00,
2013-04-24 20:31:00,41.8,40.2,29.89,NW,315,10.0,20.0,94,0.01,,-RA,0.28,VWS V14.01,2013-04-25 00:31:00,
2013-04-24 20:36:00,41.5,39.9,29.89,NW,323,13.0,24.0,94,0.01,,-RA,0.28,VWS V14.01,2013-04-25 00:36:00,
2013-04-24 20:41:00,41.3,39.7,29.91,WNW,292,24.0,24.0,94,0.01,,-RA,0.28,VWS V14.01,2013-04-25 00:41:00,
2013-04-24 20:46:00,41.0,39.4,29.91,WNW,296,11.0,29.0,94,0.01,,-RA,0.28,VWS V14.01,2013-04-25 00:46:00,
2013-04-24 20:50:00,40.5,38.9,29.93,NW,304,3.0,20.0,94,0.01,,,0.28,VWS V14.01,2013-04-25 00:50:00,
2013-04-24 20:51:00,40.7,39.1,29.91,WNW,294,14.0,20.0,94,0.01,,-RA,0.28,VWS V14.01,2013-04-25 00:51:00,
2013-04-24 20:56:00,40.5,38.9,29.93,WSW,242,11.0,20.0,94,0.01,,-RA,0.28,VWS V14.01,2013-04-25 00:56:00,
2013-04-24 21:00:00,40.4,38.8,29.95,WSW,256,18.0,24.0,94,0.01,,,0.28,VWS V14.01,2013-04-25 01:00:00,
2013-04-24 21:01:00,40.5,38.9,29.93,West,267,5.0,18.0,94,0.01,,-RA,0.28,VWS V14.01,2013-04-25 01:01:00,
2013-04-24 21:06:00,40.4,38.8,29.93,WNW,293,11.0,21.0,94,0.01,,-RA,0.28,VWS V14.01,2013-04-25 01:06:00,
2013-04-24 21:10:00,40.2,38.6,29.95,West,275,13.0,27.0,94,0.00,,,0.28,VWS V14.01,2013-04-25 01:10:00,
2013-04-24 21:11:00,40.2,38.6,29.95,West,281,10.0,27.0,94,0.00,,-RA,0.28,VWS V14.01,2013-04-25 01:11:00,
2013-04-24 21:16:00,40.2,38.6,29.95,WNW,286,12.0,27.0,94,0.00,,-RA,0.28,VWS V14.01,2013-04-25 01:16:00,
2013-04-24 21:20:00,40.0,38.4,29.95,WNW,287,16.0,22.0,94,0.00,,,0.28,VWS V14.01,2013-04-25 01:20:00,
2013-04-24 21:21:00,40.1,38.5,29.95,WNW,287,11.0,22.0,94,0.00,,-RA,0.28,VWS V14.01,2013-04-25 01:21:00,
2013-04-24 21:26:00,40.1,38.5,29.95,NW,305,15.0,22.0,94,0.00,,-RA,0.28,VWS V14.01,2013-04-25 01:26:00,
2013-04-24 21:30:00,39.6,38.0,29.97,West,280,6.0,27.0,94,0.00,,,0.28,VWS V14.01,2013-04-25 01:30:00,
2013-04-24 21:31:00,39.7,38.1,29.95,NW,320,15.0,27.0,94,0.00,,-RA,0.28,VWS V14.01,2013-04-25 01:31:00,
2013-04-24 21:36:00,39.6,38.0,29.97,NW,311,5.0,27.0,94,0.00,,-RA,0.28,VWS V14.01,2013-04-25 01:36:00,
2013-04-24 21:40:00,39.3,37.7,29.97,West,280,13.0,20.0,94,0.00,,,0.28,VWS V14.01,2013-04-25 01:40:00,
2013-04-24 21:41:00,39.4,37.8,29.97,NW,325,10.0,17.0,94,0.00,,-RA,0.28,VWS V14.01,2013-04-25 01:41:00,
2013-04-24 21:46:00,39.3,37.7,29.97,WSW,251,17.0,19.0,94,0.00,,-RA,0.28,VWS V14.01,2013-04-25 01:46:00,
2013-04-24 21:50:00,39.3,37.5,29.98,WNW,292,9.0,24.0,93,0.00,,,0.28,VWS V14.01,2013-04-25 01:50:00,
2013-04-24 21:51:00,39.3,37.5,29.98,NW,309,19.0,24.0,93,0.00,,-RA,0.28,VWS V14.01,2013-04-25 01:51:00,
2013-04-24 21:57:00,39.3,37.5,29.98,West,273,7.0,24.0,93,0.00,,-RA,0.28,VWS V14.01,2013-04-25 01:57:00,
2013-04-24 22:00:00,39.2,37.3,30.00,SW,236,13.0,24.0,93,0.01,,,0.29,VWS V14.01,2013-04-25 02:00:00,
2013-04-24 22:02:00,39.2,37.3,29.98,SSW,196,9.0,19.0,93,0.00,,-RA,0.28,VWS V14.01,2013-04-25 02:02:00,
2013-04-24 22:07:00,39.2,37.3,30.00,West,261,11.0,24.0,93,0.01,,-RA,0.29,VWS V14.01,2013-04-25 02:07:00,
2013-04-24 22:10:00,39.0,36.9,30.00,West,269,18.0,26.0,92,0.01,,,0.29,VWS V14.01,2013-04-25 02:10:00,
2013-04-24 22:12:00,39.1,37.2,30.00,West,266,10.0,26.0,93,0.01,,-RA,0.29,VWS V14.01,2013-04-25 02:12:00,
2013-04-24 22:17:00,39.1,37.0,30.00,WSW,254,14.0,26.0,92,0.01,,-RA,0.29,VWS V14.01,2013-04-25 02:17:00,
2013-04-24 22:20:00,38.8,37.0,29.99,West,281,9.0,19.0,93,0.01,,,0.29,VWS V14.01,2013-04-25 02:20:00,
2013-04-24 22:22:00,38.9,36.8,29.99,WSW,255,12.0,19.0,92,0.01,,-RA,0.29,VWS V14.01,2013-04-25 02:22:00,
2013-04-24 22:27:00,38.9,37.0,29.99,West,267,11.0,19.0,93,0.01,,-RA,0.29,VWS V14.01,2013-04-25 02:27:00,
2013-04-24 22:30:00,38.7,36.6,29.99,West,279,16.0,22.0,92,0.01,,,0.29,VWS V14.01,2013-04-25 02:30:00,
2013-04-24 22:32:00,38.7,36.8,29.99,WNW,287,11.0,20.0,93,0.01,,-RA,0.29,VWS V14.01,2013-04-25 02:32:00,
2013-04-24 22:37:00,38.7,36.6,29.99,West,263,17.0,22.0,92,0.01,,-RA,0.29,VWS V14.01,2013-04-25 02:37:00,
2013-04-24 22:40:00,38.3,35.9,29.99,West,275,13.0,26.0,91,0.01,,,0.29,VWS V14.01,2013-04-25 02:40:00,
2013-04-24 22:42:00,38.4,36.3,29.99,West,265,11.0,26.0,92,0.01,,-RA,0.29,VWS V14.01,2013-04-25 02:42:00,
2013-04-24 22:47:00,38.3,35.9,29.99,West,261,12.0,26.0,91,0.01,,-RA,0.29,VWS V14.01,2013-04-25 02:47:00,
2013-04-24 22:50:00,38.1,35.4,30.00,West,277,13.0,21.0,90,0.01,,,0.29,VWS V14.01,2013-04-25 02:50:00,
2013-04-24 22:52:00,38.1,35.7,30.00,NW,304,18.0,21.0,91,0.01,,-RA,0.29,VWS V14.01,2013-04-25 02:52:00,
2013-04-24 22:57:00,38.2,35.5,30.00,WNW,296,14.0,21.0,90,0.01,,-RA,0.29,VWS V14.01,2013-04-25 02:57:00,
2013-04-24 23:00:00,37.8,34.8,30.01,West,280,17.0,30.0,89,0.01,,,0.29,VWS V14.01,2013-04-25 03:00:00,
2013-04-24 23:02:00,38.0,35.3,30.00,WSW,250,11.0,30.0,90,0.01,,-RA,0.29,VWS V14.01,2013-04-25 03:02:00,
2013-04-24 23:07:00,37.8,34.9,30.01,NW,304,12.0,30.0,89,0.01,,-RA,0.29,VWS V14.01,2013-04-25 03:07:00,
2013-04-24 23:10:00,37.4,34.5,30.01,WNW,284,6.0,30.0,89,0.00,,,0.29,VWS V14.01,2013-04-25 03:10:00,
2013-04-24 23:12:00,37.6,34.7,30.01,West,263,14.0,30.0,89,0.00,,-RA,0.29,VWS V14.01,2013-04-25 03:12:00,
2013-04-24 23:17:00,37.4,34.5,30.01,WNW,294,16.0,30.0,89,0.00,,-RA,0.29,VWS V14.01,2013-04-25 03:17:00,
2013-04-24 23:20:00,37.0,34.1,30.01,WSW,252,9.0,21.0,89,0.00,,,0.29,VWS V14.01,2013-04-25 03:20:00,
2013-04-24 23:22:00,37.1,34.2,30.01,West,259,10.0,17.0,89,0.00,,-RA,0.29,VWS V14.01,2013-04-25 03:22:00,
2013-04-24 23:27:00,37.0,34.1,30.01,West,269,12.0,21.0,89,0.00,,-RA,0.29,VWS V14.01,2013-04-25 03:27:00,
2013-04-24 23:30:00,36.7,33.5,30.02,WSW,241,26.0,26.0,88,0.00,,,0.29,VWS V14.01,2013-04-25 03:30:00,
2013-04-24 23:32:00,36.9,33.7,30.01,West,267,10.0,19.0,88,0.00,,-RA,0.29,VWS V14.01,2013-04-25 03:32:00,
2013-04-24 23:37:00,36.7,33.5,30.02,WSW,250,9.0,25.0,88,0.00,,-RA,0.29,VWS V14.01,2013-04-25 03:37:00,
2013-04-24 23:40:00,36.5,33.3,30.02,NW,313,13.0,26.0,88,0.00,,,0.29,VWS V14.01,2013-04-25 03:40:00,
2013-04-24 23:42:00,36.6,33.4,30.02,West,275,13.0,26.0,88,0.00,,-RA,0.29,VWS V14.01,2013-04-25 03:42:00,
2013-04-24 23:47:00,36.5,33.3,30.02,WNW,283,10.0,26.0,88,0.00,,-RA,0.29,VWS V14.01,2013-04-25 03:47:00,
2013-04-24 23:50:00,36.4,33.5,30.03,WNW,286,11.0,18.0,89,0.00,,,0.29,VWS V14.01,2013-04-25 03:50:00,
2013-04-24 23:52:00,36.5,33.6,30.03,WNW,283,9.0,18.0,89,0.00,,-RA,0.29,VWS V14.01,2013-04-25 03:52:00,
2013-04-24 23:57:00,36.4,33.5,30.03,West,271,7.0,18.0,89,0.00,,-RA,0.29,VWS V14.01,2013-04-25 03:57:00,